Creek Data

    Home     View Charts     View Raw Data     Messages

ID Distance Battery Voltage Battery Current Internal Temp Internal Humidity External Temp Solar Input rssi snr Time Stamp Record
68679 15.2 3.70 0 68 46 66 5.1 -76 8 03/12/2026 11:00 AM 51554
68678 15.2 3.70 0 66 46 65 5.1 -72 7 03/12/2026 10:45 AM 51553
68677 15.2 3.70 0 65 46 63 5.1 -72 8 03/12/2026 10:30 AM 51552
68676 15.2 3.70 0 62 46 62 5.1 -74 8 03/12/2026 10:15 AM 51551
68675 15.2 4.04 0 60 46 62 5.1 -74 7 03/12/2026 10:00 AM 51550
68674 15.2 3.91 0 58 46 62 5.1 -73 8 03/12/2026 09:45 AM 51549
68673 15.1 3.69 0 55 47 58 5.1 -74 7 03/12/2026 09:30 AM 51548
68672 15.0 3.69 0 50 49 56 5.1 -74 8 03/12/2026 09:00 AM 51546
68671 14.9 3.69 0 48 49 53 5.1 -74 8 03/12/2026 08:45 AM 51545
68670 14.8 3.78 0 46 49 50 5.1 -75 9 03/12/2026 08:30 AM 51544
68669 14.8 3.69 0 45 50 49 5.1 -75 8 03/12/2026 08:15 AM 51543
68668 14.9 3.92 10 44 50 49 4.5 -74 9 03/12/2026 08:00 AM 51542
68667 14.9 3.65 -6 43 51 47 4.5 -75 9 03/12/2026 07:45 AM 51541
68666 14.9 3.41 -6 42 52 44 4.5 -75 10 03/12/2026 07:30 AM 51540
68665 14.9 3.68 -5 42 52 44 2.5 -75 9 03/12/2026 07:15 AM 51539
68664 14.8 3.67 -5 43 52 44 0.1 -75 8 03/12/2026 06:45 AM 51537
68663 14.9 3.68 -5 43 52 45 0 -75 8 03/12/2026 06:30 AM 51536
68662 14.9 3.42 -5 43 52 44 0.1 -74 9 03/12/2026 06:15 AM 51535
68661 14.9 3.68 -5 44 52 46 0 -74 9 03/12/2026 06:00 AM 51534
68660 14.9 3.43 -5 45 52 47 0 -74 9 03/12/2026 05:45 AM 51533
68659 14.9 3.43 -5 46 51 48 0 -75 9 03/12/2026 05:30 AM 51532
68658 14.9 3.68 -5 46 51 48 0 -76 9 03/12/2026 05:15 AM 51531
68657 14.9 3.44 -5 46 51 49 0.1 -75 9 03/12/2026 05:00 AM 51530
68656 14.8 3.47 -5 46 51 48 0 -76 9 03/12/2026 04:45 AM 51529
68655 14.9 3.69 -5 46 51 49 0 -76 8 03/12/2026 04:30 AM 51528